KSFO

San Francisco International Airport

San Francisco, California, USA
METAR KSFO 231056Z 25006KT 10SM FEW008 SCT019 OVC023 13/10 A2991 RMK AO2 SLP128 T01330100
Observed Flight Rules
May-23 @ 10:56 UTC (15 minutes ago) Marginal Visual Flight Rules
Wind Visibility Clouds
250° at 6 knots 10 miles
  • Few at 800' AGL
  • Scattered at 1,900' AGL
  • Overcast at 2,300' AGL
Temperatures Readings
Current 13°C / 55°F
Dewpoint 10°C / 50°F
Humidity 82%
Altimeter 29.91" Hg
Pressure 1012.8 hPa
Elevation 3
METAR KSFO 231056Z 25006KT 10SM FEW008 SCT019 OVC023 13/10 A2991 RMK AO2 SLP128 T01330100
Observed Flight Rules
May-23 @ 10:56 UTC
(15 minutes ago)
MVFR
Wind Visibility
250° at 6 knots 10 miles
Clouds
  • Few at 800' AGL
  • Scattered at 1,900' AGL
  • Overcast at 2,300' AGL
Temperature Dewpoint
13°C / 55°F 10°C / 50°F
Humidity Altimeter Pressure
82% 29.91" Hg 1012.8 hPa